PWSweather.com
Personal Weather Stations
Station Observations
KMIEASTT1
Tawas Bay, East Tawas, MI 48730

Tawas BayEast Tawas, MI 48730

Lat: 44.28, Lon: -83.48

Elevation: 600

Station Type: Davis VantagePro

http://www.tawasbayweather.com

High Low Average
Temperature 25.5°F-3.6°C 7.6°F-13.6°C 18.5°F-7.5°C
Dew Point 20.5°F-6.4°C 4.8°F-15.1°C 15.4°F-9.2°C
Winds 17.0 mph 27.4 kmh Calm Calm 8.0 mph SW12.9 kmh SW
Wind Gusts 19.0 mph30.6 kmh 2.0 mph3.2 kmh 11.0 mph17.7 kmh
Humidity 94% 80% 87%
Pressure 30.48 in1032.2 mb 30.32 in1026.8 mb -
Precipitation 0.00 in0.0 mm - -
Hour Temp Dew Point Humidity Winds Wind Gusts Pressure Precip Precip Rate Daily Precip Total
12:01 AM 15.6°F-9.1°C 12.2°F-11.0°C 86% Calm Calm 2.0 mph3.2 kmh 30.32 in1026.8 mb 0.00 in0.0 mm 0.00 in/hr0.0 mm/hr 0.00 in0.0 mm
12:15 AM 15.9°F-8.9°C 12.2°F-11.0°C 85% Calm Calm 2.0 mph3.2 kmh 30.32 in1026.8 mb 0.00 in0.0 mm 0.00 in/hr0.0 mm/hr 0.00 in0.0 mm
12:30 AM 15.9°F-8.9°C 11.9°F-11.2°C 84% Calm Calm 2.0 mph3.2 kmh 30.32 in1026.8 mb 0.00 in0.0 mm 0.00 in/hr0.0 mm/hr 0.00 in0.0 mm
12:45 AM 15.4°F-9.2°C 11.7°F-11.3°C 85% Calm Calm 2.0 mph3.2 kmh 30.32 in1026.8 mb 0.00 in0.0 mm 0.00 in/hr0.0 mm/hr 0.00 in0.0 mm
01:01 AM 15.5°F-9.2°C 12.1°F-11.1°C 86% Calm Calm 2.0 mph3.2 kmh 30.32 in1026.8 mb 0.00 in0.0 mm 0.00 in/hr0.0 mm/hr 0.00 in0.0 mm
01:15 AM 15.7°F-9.1°C 12.3°F-10.9°C 86% 1.0 mph NNW1.6 kmh NNW 3.0 mph4.8 kmh 30.33 in1027.1 mb 0.00 in0.0 mm 0.00 in/hr0.0 mm/hr 0.00 in0.0 mm
01:30 AM 15.4°F-9.2°C 12.2°F-11.0°C 87% 2.0 mph NW3.2 kmh NW 4.0 mph6.4 kmh 30.33 in1027.1 mb 0.00 in0.0 mm 0.00 in/hr0.0 mm/hr 0.00 in0.0 mm
01:45 AM 15.1°F-9.4°C 12.2°F-11.0°C 88% Calm Calm 3.0 mph4.8 kmh 30.34 in1027.4 mb 0.00 in0.0 mm 0.00 in/hr0.0 mm/hr 0.00 in0.0 mm
02:01 AM 14.5°F-9.7°C 11.9°F-11.2°C 89% 3.0 mph W4.8 kmh W 3.0 mph4.8 kmh 30.35 in1027.8 mb 0.00 in0.0 mm 0.00 in/hr0.0 mm/hr 0.00 in0.0 mm
02:15 AM 14.4°F-9.8°C 12.0°F-11.1°C 90% 1.0 mph NW1.6 kmh NW 3.0 mph4.8 kmh 30.35 in1027.8 mb 0.00 in0.0 mm 0.00 in/hr0.0 mm/hr 0.00 in0.0 mm
02:30 AM 14.3°F-9.8°C 11.9°F-11.2°C 90% 2.0 mph NNW3.2 kmh NNW 2.0 mph3.2 kmh 30.35 in1027.8 mb 0.00 in0.0 mm 0.00 in/hr0.0 mm/hr 0.00 in0.0 mm
02:45 AM 14.1°F-9.9°C 11.5°F-11.4°C 89% 1.0 mph NNW1.6 kmh NNW 2.0 mph3.2 kmh 30.36 in1028.1 mb 0.00 in0.0 mm 0.00 in/hr0.0 mm/hr 0.00 in0.0 mm
03:01 AM 13.5°F-10.3°C 10.9°F-11.7°C 89% 1.0 mph NNW1.6 kmh NNW 2.0 mph3.2 kmh 30.36 in1028.1 mb 0.00 in0.0 mm 0.00 in/hr0.0 mm/hr 0.00 in0.0 mm
03:15 AM 12.6°F-10.8°C 9.7°F-12.4°C 88% 2.0 mph NNW3.2 kmh NNW 3.0 mph4.8 kmh 30.37 in1028.4 mb 0.00 in0.0 mm 0.00 in/hr0.0 mm/hr 0.00 in0.0 mm
03:30 AM 11.9°F-11.2°C 9.0°F-12.8°C 88% 1.0 mph NNW1.6 kmh NNW 3.0 mph4.8 kmh 30.38 in1028.8 mb 0.00 in0.0 mm 0.00 in/hr0.0 mm/hr 0.00 in0.0 mm
03:45 AM 11.6°F-11.3°C 9.0°F-12.8°C 89% 1.0 mph NNW1.6 kmh NNW 2.0 mph3.2 kmh 30.38 in1028.8 mb 0.00 in0.0 mm 0.00 in/hr0.0 mm/hr 0.00 in0.0 mm
04:00 AM 11.4°F-11.4°C 8.8°F-12.9°C 89% 2.0 mph NNW3.2 kmh NNW 2.0 mph3.2 kmh 30.39 in1029.1 mb 0.00 in0.0 mm 0.00 in/hr0.0 mm/hr 0.00 in0.0 mm
04:15 AM 11.3°F-11.5°C 8.5°F-13.1°C 88% 2.0 mph NNW3.2 kmh NNW 2.0 mph3.2 kmh 30.39 in1029.1 mb 0.00 in0.0 mm 0.00 in/hr0.0 mm/hr 0.00 in0.0 mm
04:30 AM 10.3°F-12.1°C 7.5°F-13.6°C 88% 1.0 mph NNW1.6 kmh NNW 2.0 mph3.2 kmh 30.40 in1029.5 mb 0.00 in0.0 mm 0.00 in/hr0.0 mm/hr 0.00 in0.0 mm
04:45 AM 9.4°F-12.6°C 6.6°F-14.1°C 88% 2.0 mph NNW3.2 kmh NNW 2.0 mph3.2 kmh 30.40 in1029.5 mb 0.00 in0.0 mm 0.00 in/hr0.0 mm/hr 0.00 in0.0 mm
05:00 AM 8.7°F-12.9°C 5.9°F-14.5°C 88% 2.0 mph NNW3.2 kmh NNW 2.0 mph3.2 kmh 30.40 in1029.5 mb 0.00 in0.0 mm 0.00 in/hr0.0 mm/hr 0.00 in0.0 mm
05:15 AM 7.6°F-13.6°C 4.8°F-15.1°C 88% 1.0 mph N1.6 kmh N 2.0 mph3.2 kmh 30.40 in1029.5 mb 0.00 in0.0 mm 0.00 in/hr0.0 mm/hr 0.00 in0.0 mm
05:30 AM 7.6°F-13.6°C 5.0°F-15.0°C 89% 1.0 mph N1.6 kmh N 2.0 mph3.2 kmh 30.41 in1029.8 mb 0.00 in0.0 mm 0.00 in/hr0.0 mm/hr 0.00 in0.0 mm
05:45 AM 8.7°F-12.9°C 6.4°F-14.2°C 90% Calm Calm 2.0 mph3.2 kmh 30.42 in1030.1 mb 0.00 in0.0 mm 0.00 in/hr0.0 mm/hr 0.00 in0.0 mm
06:00 AM 9.7°F-12.4°C 7.6°F-13.6°C 91% 1.0 mph N1.6 kmh N 2.0 mph3.2 kmh 30.41 in1029.8 mb 0.00 in0.0 mm 0.00 in/hr0.0 mm/hr 0.00 in0.0 mm
06:15 AM 10.8°F-11.8°C 8.7°F-12.9°C 91% 1.0 mph NE1.6 kmh NE 2.0 mph3.2 kmh 30.41 in1029.8 mb 0.00 in0.0 mm 0.00 in/hr0.0 mm/hr 0.00 in0.0 mm
06:30 AM 11.4°F-11.4°C 9.0°F-12.8°C 90% Calm Calm 3.0 mph4.8 kmh 30.42 in1030.1 mb 0.00 in0.0 mm 0.00 in/hr0.0 mm/hr 0.00 in0.0 mm
06:45 AM 18.5°F-7.5°C 17.1°F-8.3°C 94% 11.0 mph S17.7 kmh S 12.0 mph19.3 kmh 30.41 in1029.8 mb 0.00 in0.0 mm 0.00 in/hr0.0 mm/hr 0.00 in0.0 mm
07:00 AM 20.4°F-6.4°C 16.6°F-8.6°C 85% 14.0 mph S22.5 kmh S 16.0 mph25.7 kmh 30.40 in1029.5 mb 0.00 in0.0 mm 0.00 in/hr0.0 mm/hr 0.00 in0.0 mm
07:15 AM 20.6°F-6.3°C 17.4°F-8.1°C 87% 16.0 mph S25.7 kmh S 16.0 mph25.7 kmh 30.39 in1029.1 mb 0.00 in0.0 mm 0.00 in/hr0.0 mm/hr 0.00 in0.0 mm
07:30 AM 20.4°F-6.4°C 17.2°F-8.2°C 87% 12.0 mph S19.3 kmh S 18.0 mph29.0 kmh 30.40 in1029.5 mb 0.00 in0.0 mm 0.00 in/hr0.0 mm/hr 0.00 in0.0 mm
07:45 AM 20.4°F-6.4°C 17.2°F-8.2°C 87% 15.0 mph S24.1 kmh S 16.0 mph25.7 kmh 30.41 in1029.8 mb 0.00 in0.0 mm 0.00 in/hr0.0 mm/hr 0.00 in0.0 mm
08:01 AM 20.6°F-6.3°C 17.4°F-8.1°C 87% 11.0 mph S17.7 kmh S 16.0 mph25.7 kmh 30.41 in1029.8 mb 0.00 in0.0 mm 0.00 in/hr0.0 mm/hr 0.00 in0.0 mm
08:15 AM 20.5°F-6.4°C 17.0°F-8.3°C 86% 10.0 mph S16.1 kmh S 16.0 mph25.7 kmh 30.42 in1030.1 mb 0.00 in0.0 mm 0.00 in/hr0.0 mm/hr 0.00 in0.0 mm
08:30 AM 20.7°F-6.3°C 17.7°F-7.9°C 88% 13.0 mph S20.9 kmh S 17.0 mph27.4 kmh 30.43 in1030.5 mb 0.00 in0.0 mm 0.00 in/hr0.0 mm/hr 0.00 in0.0 mm
08:45 AM 20.7°F-6.3°C 17.2°F-8.2°C 86% 11.0 mph S17.7 kmh S 16.0 mph25.7 kmh 30.44 in1030.8 mb 0.00 in0.0 mm 0.00 in/hr0.0 mm/hr 0.00 in0.0 mm
09:01 AM 20.9°F-6.2°C 17.4°F-8.1°C 86% 14.0 mph S22.5 kmh S 17.0 mph27.4 kmh 30.44 in1030.8 mb 0.00 in0.0 mm 0.00 in/hr0.0 mm/hr 0.00 in0.0 mm
09:15 AM 20.8°F-6.2°C 17.6°F-8.0°C 87% 10.0 mph S16.1 kmh S 15.0 mph24.1 kmh 30.45 in1031.2 mb 0.00 in0.0 mm 0.00 in/hr0.0 mm/hr 0.00 in0.0 mm
09:30 AM 20.5°F-6.4°C 17.8°F-7.9°C 89% 12.0 mph S19.3 kmh S 17.0 mph27.4 kmh 30.45 in1031.2 mb 0.00 in0.0 mm 0.00 in/hr0.0 mm/hr 0.00 in0.0 mm
09:45 AM 20.6°F-6.3°C 17.9°F-7.8°C 89% 11.0 mph S17.7 kmh S 17.0 mph27.4 kmh 30.46 in1031.5 mb 0.00 in0.0 mm 0.00 in/hr0.0 mm/hr 0.00 in0.0 mm
10:01 AM 20.7°F-6.3°C 18.0°F-7.8°C 89% 12.0 mph S19.3 kmh S 19.0 mph30.6 kmh 30.46 in1031.5 mb 0.00 in0.0 mm 0.00 in/hr0.0 mm/hr 0.00 in0.0 mm
10:15 AM 20.6°F-6.3°C 18.1°F-7.7°C 90% 12.0 mph S19.3 kmh S 19.0 mph30.6 kmh 30.47 in1031.8 mb 0.00 in0.0 mm 0.00 in/hr0.0 mm/hr 0.00 in0.0 mm
10:30 AM 20.6°F-6.3°C 18.1°F-7.7°C 90% 13.0 mph SSE20.9 kmh SSE 18.0 mph29.0 kmh 30.47 in1031.8 mb 0.00 in0.0 mm 0.00 in/hr0.0 mm/hr 0.00 in0.0 mm
11:01 AM 20.3°F-6.5°C 17.6°F-8.0°C 89% 12.0 mph S19.3 kmh S 19.0 mph30.6 kmh 30.48 in1032.2 mb 0.00 in0.0 mm 0.00 in/hr0.0 mm/hr 0.00 in0.0 mm
11:15 AM 20.5°F-6.4°C 18.0°F-7.8°C 90% 15.0 mph S24.1 kmh S 18.0 mph29.0 kmh 30.48 in1032.2 mb 0.00 in0.0 mm 0.00 in/hr0.0 mm/hr 0.00 in0.0 mm
11:30 AM 20.8°F-6.2°C 18.6°F-7.4°C 91% 10.0 mph SSW16.1 kmh SSW 15.0 mph24.1 kmh 30.48 in1032.2 mb 0.00 in0.0 mm 0.00 in/hr0.0 mm/hr 0.00 in0.0 mm
11:45 AM 20.7°F-6.3°C 18.5°F-7.5°C 91% 13.0 mph SSW20.9 kmh SSW 18.0 mph29.0 kmh 30.48 in1032.2 mb 0.00 in0.0 mm 0.00 in/hr0.0 mm/hr 0.00 in0.0 mm
12:01 PM 20.7°F-6.3°C 18.5°F-7.5°C 91% 10.0 mph S16.1 kmh S 18.0 mph29.0 kmh 30.48 in1032.2 mb 0.00 in0.0 mm 0.00 in/hr0.0 mm/hr 0.00 in0.0 mm
12:15 PM 20.9°F-6.2°C 18.7°F-7.4°C 91% 15.0 mph SSW24.1 kmh SSW 16.0 mph25.7 kmh 30.47 in1031.8 mb 0.00 in0.0 mm 0.00 in/hr0.0 mm/hr 0.00 in0.0 mm
12:30 PM 21.1°F-6.1°C 18.6°F-7.4°C 90% 8.0 mph S12.9 kmh S 17.0 mph27.4 kmh 30.47 in1031.8 mb 0.00 in0.0 mm 0.00 in/hr0.0 mm/hr 0.00 in0.0 mm
12:45 PM 21.2°F-6.0°C 18.2°F-7.7°C 88% 12.0 mph SSW19.3 kmh SSW 16.0 mph25.7 kmh 30.46 in1031.5 mb 0.00 in0.0 mm 0.00 in/hr0.0 mm/hr 0.00 in0.0 mm
01:01 PM 21.2°F-6.0°C 18.2°F-7.7°C 88% 10.0 mph SW16.1 kmh SW 15.0 mph24.1 kmh 30.46 in1031.5 mb 0.00 in0.0 mm 0.00 in/hr0.0 mm/hr 0.00 in0.0 mm
01:15 PM 21.5°F-5.8°C 18.5°F-7.5°C 88% 11.0 mph SSW17.7 kmh SSW 15.0 mph24.1 kmh 30.45 in1031.2 mb 0.01 in0.3 mm 0.04 in/hr1.0 mm/hr 0.01 in0.3 mm
01:30 PM 21.6°F-5.8°C 18.6°F-7.4°C 88% 10.0 mph SW16.1 kmh SW 17.0 mph27.4 kmh 30.45 in1031.2 mb 0.01 in0.3 mm 0.00 in/hr0.0 mm/hr 0.01 in0.3 mm
01:45 PM 21.8°F-5.7°C 18.5°F-7.5°C 87% 7.0 mph S11.3 kmh S 16.0 mph25.7 kmh 30.45 in1031.2 mb 0.04 in1.0 mm 0.12 in/hr3.0 mm/hr 0.04 in1.0 mm
02:01 PM 22.0°F-5.6°C 18.7°F-7.4°C 87% 7.0 mph SW11.3 kmh SW 14.0 mph22.5 kmh 30.44 in1030.8 mb 0.04 in1.0 mm 0.00 in/hr0.0 mm/hr 0.04 in1.0 mm
02:15 PM 22.3°F-5.4°C 18.8°F-7.3°C 86% 11.0 mph SW17.7 kmh SW 14.0 mph22.5 kmh 30.44 in1030.8 mb 0.04 in1.0 mm 0.00 in/hr0.0 mm/hr 0.04 in1.0 mm
02:30 PM 22.5°F-5.3°C 19.0°F-7.2°C 86% 12.0 mph SW19.3 kmh SW 14.0 mph22.5 kmh 30.43 in1030.5 mb 0.04 in1.0 mm 0.00 in/hr0.0 mm/hr 0.04 in1.0 mm
02:45 PM 22.7°F-5.2°C 19.2°F-7.1°C 86% 8.0 mph SSW12.9 kmh SSW 15.0 mph24.1 kmh 30.43 in1030.5 mb 0.03 in0.8 mm 0.00 in/hr0.0 mm/hr 0.04 in1.0 mm
03:01 PM 22.8°F-5.1°C 19.3°F-7.1°C 86% 11.0 mph SW17.7 kmh SW 15.0 mph24.1 kmh 30.43 in1030.5 mb 0.00 in0.0 mm 0.00 in/hr0.0 mm/hr 0.04 in1.0 mm
03:15 PM 22.7°F-5.2°C 18.6°F-7.4°C 84% 8.0 mph S12.9 kmh S 16.0 mph25.7 kmh 30.43 in1030.5 mb 0.00 in0.0 mm 0.00 in/hr0.0 mm/hr 0.04 in1.0 mm
03:30 PM 23.2°F-4.9°C 19.6°F-6.9°C 86% 9.0 mph SW14.5 kmh SW 13.0 mph20.9 kmh 30.44 in1030.8 mb 0.00 in0.0 mm 0.00 in/hr0.0 mm/hr 0.04 in1.0 mm
03:45 PM 23.4°F-4.8°C 19.8°F-6.8°C 86% 11.0 mph S17.7 kmh S 17.0 mph27.4 kmh 30.43 in1030.5 mb 0.00 in0.0 mm 0.00 in/hr0.0 mm/hr 0.04 in1.0 mm
04:01 PM 23.8°F-4.6°C 20.2°F-6.6°C 86% 10.0 mph S16.1 kmh S 15.0 mph24.1 kmh 30.43 in1030.5 mb 0.00 in0.0 mm 0.00 in/hr0.0 mm/hr 0.04 in1.0 mm
04:15 PM 23.8°F-4.6°C 20.0°F-6.7°C 85% 17.0 mph S27.4 kmh S 17.0 mph27.4 kmh 30.43 in1030.5 mb 0.00 in0.0 mm 0.00 in/hr0.0 mm/hr 0.04 in1.0 mm
04:31 PM 24.0°F-4.4°C 19.9°F-6.7°C 84% 11.0 mph SSW17.7 kmh SSW 17.0 mph27.4 kmh 30.43 in1030.5 mb 0.00 in0.0 mm 0.00 in/hr0.0 mm/hr 0.04 in1.0 mm
04:45 PM 24.3°F-4.3°C 20.5°F-6.4°C 85% 11.0 mph SW17.7 kmh SW 18.0 mph29.0 kmh 30.43 in1030.5 mb 0.00 in0.0 mm 0.00 in/hr0.0 mm/hr 0.04 in1.0 mm
05:01 PM 24.5°F-4.2°C 20.1°F-6.6°C 83% 9.0 mph SSW14.5 kmh SSW 17.0 mph27.4 kmh 30.43 in1030.5 mb 0.00 in0.0 mm 0.00 in/hr0.0 mm/hr 0.04 in1.0 mm
05:15 PM 24.5°F-4.2°C 20.1°F-6.6°C 83% 9.0 mph S14.5 kmh S 17.0 mph27.4 kmh 30.42 in1030.1 mb 0.00 in0.0 mm 0.00 in/hr0.0 mm/hr 0.04 in1.0 mm
05:30 PM 24.7°F-4.1°C 20.3°F-6.5°C 83% 15.0 mph S24.1 kmh S 19.0 mph30.6 kmh 30.43 in1030.5 mb 0.00 in0.0 mm 0.00 in/hr0.0 mm/hr 0.04 in1.0 mm
05:46 PM 25.1°F-3.8°C 20.4°F-6.4°C 82% 15.0 mph SSW24.1 kmh SSW 19.0 mph30.6 kmh 30.43 in1030.5 mb 0.00 in0.0 mm 0.00 in/hr0.0 mm/hr 0.04 in1.0 mm
06:01 PM 25.4°F-3.7°C 20.4°F-6.4°C 81% 14.0 mph S22.5 kmh S 19.0 mph30.6 kmh 30.43 in1030.5 mb 0.00 in0.0 mm 0.00 in/hr0.0 mm/hr 0.04 in1.0 mm
06:15 PM 25.5°F-3.6°C 20.5°F-6.4°C 81% 15.0 mph SSW24.1 kmh SSW 18.0 mph29.0 kmh 30.43 in1030.5 mb 0.00 in0.0 mm 0.00 in/hr0.0 mm/hr 0.04 in1.0 mm
06:30 PM 25.4°F-3.7°C 20.1°F-6.6°C 80% 15.0 mph S24.1 kmh S 19.0 mph30.6 kmh 30.43 in1030.5 mb 0.00 in0.0 mm 0.00 in/hr0.0 mm/hr 0.04 in1.0 mm
06:45 PM 25.3°F-3.7°C 20.3°F-6.5°C 81% 10.0 mph S16.1 kmh S 14.0 mph22.5 kmh 30.43 in1030.5 mb 0.00 in0.0 mm 0.00 in/hr0.0 mm/hr 0.04 in1.0 mm
07:01 PM 25.2°F-3.8°C 20.2°F-6.6°C 81% 9.0 mph S14.5 kmh S 16.0 mph25.7 kmh 30.42 in1030.1 mb 0.00 in0.0 mm 0.00 in/hr0.0 mm/hr 0.04 in1.0 mm
07:15 PM 25.2°F-3.8°C 20.2°F-6.6°C 81% 12.0 mph SSE19.3 kmh SSE 15.0 mph24.1 kmh 30.41 in1029.8 mb 0.00 in0.0 mm 0.00 in/hr0.0 mm/hr 0.04 in1.0 mm
07:30 PM 25.3°F-3.7°C 19.7°F-6.8°C 79% 12.0 mph S19.3 kmh S 14.0 mph22.5 kmh 30.41 in1029.8 mb 0.00 in0.0 mm 0.00 in/hr0.0 mm/hr 0.04 in1.0 mm
07:45 PM 25.6°F-3.6°C 20.0°F-6.7°C 79% 11.0 mph SSE17.7 kmh SSE 17.0 mph27.4 kmh 30.40 in1029.5 mb 0.00 in0.0 mm 0.00 in/hr0.0 mm/hr 0.04 in1.0 mm
08:01 PM 25.7°F-3.5°C 20.1°F-6.6°C 79% 13.0 mph SSE20.9 kmh SSE 19.0 mph30.6 kmh 30.40 in1029.5 mb 0.00 in0.0 mm 0.00 in/hr0.0 mm/hr 0.04 in1.0 mm
08:15 PM 25.7°F-3.5°C 20.7°F-6.3°C 81% 12.0 mph SSE19.3 kmh SSE 19.0 mph30.6 kmh 30.40 in1029.5 mb 0.00 in0.0 mm 0.00 in/hr0.0 mm/hr 0.04 in1.0 mm
08:30 PM 26.0°F-3.3°C 20.1°F-6.6°C 78% 16.0 mph SSE25.7 kmh SSE 19.0 mph30.6 kmh 30.39 in1029.1 mb 0.00 in0.0 mm 0.00 in/hr0.0 mm/hr 0.04 in1.0 mm
08:45 PM 26.2°F-3.2°C 20.0°F-6.7°C 77% 16.0 mph S25.7 kmh S 19.0 mph30.6 kmh 30.39 in1029.1 mb 0.00 in0.0 mm 0.00 in/hr0.0 mm/hr 0.04 in1.0 mm
09:01 PM 26.0°F-3.3°C 20.4°F-6.4°C 79% 15.0 mph SSE24.1 kmh SSE 21.0 mph33.8 kmh 30.39 in1029.1 mb 0.00 in0.0 mm 0.00 in/hr0.0 mm/hr 0.04 in1.0 mm
09:15 PM 26.0°F-3.3°C 21.0°F-6.1°C 81% 15.0 mph SSE24.1 kmh SSE 21.0 mph33.8 kmh 30.38 in1028.8 mb 0.00 in0.0 mm 0.00 in/hr0.0 mm/hr 0.04 in1.0 mm
09:31 PM 25.8°F-3.4°C 20.8°F-6.2°C 81% 20.0 mph S32.2 kmh S 22.0 mph35.4 kmh 30.38 in1028.8 mb 0.00 in0.0 mm 0.00 in/hr0.0 mm/hr 0.04 in1.0 mm
09:45 PM 25.8°F-3.4°C 21.1°F-6.1°C 82% 12.0 mph SE19.3 kmh SE 21.0 mph33.8 kmh 30.37 in1028.4 mb 0.00 in0.0 mm 0.00 in/hr0.0 mm/hr 0.04 in1.0 mm
10:01 PM 25.6°F-3.6°C 21.2°F-6.0°C 83% 18.0 mph S29.0 kmh S 21.0 mph33.8 kmh 30.36 in1028.1 mb 0.00 in0.0 mm 0.00 in/hr0.0 mm/hr 0.04 in1.0 mm
10:15 PM 25.5°F-3.6°C 20.8°F-6.2°C 82% 17.0 mph SSE27.4 kmh SSE 20.0 mph32.2 kmh 30.35 in1027.8 mb 0.00 in0.0 mm 0.00 in/hr0.0 mm/hr 0.04 in1.0 mm
10:31 PM 25.7°F-3.5°C 21.5°F-5.8°C 84% 16.0 mph S25.7 kmh S 22.0 mph35.4 kmh 30.35 in1027.8 mb 0.00 in0.0 mm 0.00 in/hr0.0 mm/hr 0.04 in1.0 mm
10:45 PM 25.6°F-3.6°C 21.5°F-5.8°C 84% 18.0 mph S29.0 kmh S 22.0 mph35.4 kmh 30.35 in1027.8 mb 0.00 in0.0 mm 0.00 in/hr0.0 mm/hr 0.04 in1.0 mm
11:01 PM 25.4°F-3.7°C 21.0°F-6.1°C 83% 14.0 mph S22.5 kmh S 22.0 mph35.4 kmh 30.34 in1027.4 mb 0.00 in0.0 mm 0.00 in/hr0.0 mm/hr 0.04 in1.0 mm
11:15 PM 25.3°F-3.7°C 20.9°F-6.2°C 83% 15.0 mph S24.1 kmh S 22.0 mph35.4 kmh 30.34 in1027.4 mb 0.00 in0.0 mm 0.00 in/hr0.0 mm/hr 0.04 in1.0 mm
11:30 PM 25.2°F-3.8°C 20.8°F-6.2°C 83% 19.0 mph S30.6 kmh S 22.0 mph35.4 kmh 30.34 in1027.4 mb 0.00 in0.0 mm 0.00 in/hr0.0 mm/hr 0.04 in1.0 mm
11:45 PM 25.2°F-3.8°C 21.3°F-5.9°C 85% 15.0 mph S24.1 kmh S 21.0 mph33.8 kmh 30.34 in1027.4 mb 0.00 in0.0 mm 0.00 in/hr0.0 mm/hr 0.04 in1.0 mm